Time;durP1;ratioP1;P1;durP2;ratioP2;P2;SDS_P1;SDS_P2;PMS_P1;PMS_P2;Temp;Humidity;BMP_temperature;BMP_pressure;BME280_temperature;BME280_humidity;BME280_pressure;Samples;Min_cycle;Max_cycle;Signal;HPM_P1;HPM_P2
2021/05/26 00:00:55;;;;;;;13.35;2.55;;;;;;;;;;4949639;28;20089;-40
2021/05/26 00:03:22;;;;;;;8.10;2.30;;;;;;;;;;4942949;29;20102;-39
2021/05/26 00:05:50;;;;;;;8.07;2.30;;;;;;;;;;4926538;29;20067;-40
2021/05/26 00:08:37;;;;;;;8.07;2.40;;;;;;;;;;4950807;29;20026;-39
2021/05/26 00:11:05;;;;;;;8.65;2.33;;;;;;;;;;4944629;29;20028;-39
2021/05/26 00:13:32;;;;;;;10.00;2.17;;;;;;;;;;4936837;29;20479;-40
2021/05/26 00:16:00;;;;;;;9.85;2.22;;;;;;;;;;4953476;29;20031;-35
2021/05/26 00:18:27;;;;;;;8.75;2.30;;;;;;;;;;4941797;29;20357;-37
2021/05/26 00:20:54;;;;;;;3.97;1.73;;;;;;;;;;4940268;29;20027;-41
2021/05/26 00:23:22;;;;;;;8.73;2.00;;;;;;;;;;4948808;29;20030;-40
2021/05/26 00:25:49;;;;;;;8.43;2.10;;;;;;;;;;4950829;29;20023;-40
2021/05/26 00:28:16;;;;;;;5.78;1.83;;;;;;;;;;4952243;29;20356;-38
2021/05/26 00:30:49;;;;;;;9.18;2.05;;;;;;;;;;4949095;29;20026;-39
2021/05/26 00:33:16;;;;;;;10.57;1.95;;;;;;;;;;4949327;29;20039;-39
2021/05/26 00:35:43;;;;;;;8.35;1.98;;;;;;;;;;4936577;29;20506;-40
2021/05/26 00:38:11;;;;;;;5.05;1.65;;;;;;;;;;4944457;29;20035;-39
2021/05/26 00:40:38;;;;;;;7.85;1.63;;;;;;;;;;4953342;29;20016;-39
2021/05/26 00:43:05;;;;;;;12.00;1.95;;;;;;;;;;4943993;29;20028;-40
2021/05/26 00:45:32;;;;;;;6.63;1.60;;;;;;;;;;4952121;29;20023;-41
2021/05/26 00:48:00;;;;;;;4.47;1.75;;;;;;;;;;4950987;28;20034;-39
2021/05/26 00:50:28;;;;;;;6.78;1.55;;;;;;;;;;4951899;29;20035;-39
2021/05/26 00:52:59;;;;;;;15.57;1.83;;;;;;;;;;4949481;29;20087;-38
2021/05/26 00:55:27;;;;;;;7.70;1.55;;;;;;;;;;4949403;29;20089;-37
2021/05/26 00:57:55;;;;;;;9.43;1.77;;;;;;;;;;4941536;29;20158;-40
2021/05/26 01:00:24;;;;;;;8.27;1.95;;;;;;;;;;4953737;29;20104;-39
2021/05/26 01:02:52;;;;;;;11.52;2.40;;;;;;;;;;4953174;28;20062;-41
2021/05/26 01:05:24;;;;;;;16.45;2.58;;;;;;;;;;4942653;29;20032;-41
2021/05/26 01:07:52;;;;;;;16.92;3.05;;;;;;;;;;4946105;29;20039;-38
2021/05/26 01:10:20;;;;;;;12.95;2.63;;;;;;;;;;4923159;29;20429;-40
2021/05/26 01:12:47;;;;;;;23.73;3.28;;;;;;;;;;4946762;29;20406;-42
2021/05/26 01:15:15;;;;;;;20.08;3.65;;;;;;;;;;4935630;29;20432;-43
2021/05/26 01:17:42;;;;;;;17.02;3.42;;;;;;;;;;4946682;29;20531;-43
2021/05/26 01:20:11;;;;;;;10.88;3.72;;;;;;;;;;4946938;29;20506;-43
2021/05/26 01:22:38;;;;;;;15.75;3.13;;;;;;;;;;4949986;29;20035;-42
2021/05/26 01:25:06;;;;;;;13.60;3.20;;;;;;;;;;4951603;29;20027;-43
2021/05/26 01:27:34;;;;;;;18.08;3.25;;;;;;;;;;4926800;29;20019;-43
2021/05/26 01:30:01;;;;;;;16.67;3.25;;;;;;;;;;4947285;29;20034;-41
2021/05/26 01:32:28;;;;;;;12.63;3.72;;;;;;;;;;4943879;29;20494;-43
2021/05/26 01:34:55;;;;;;;11.90;2.75;;;;;;;;;;4949721;29;20491;-43
2021/05/26 01:37:22;;;;;;;13.68;2.92;;;;;;;;;;4924239;29;20031;-42
2021/05/26 01:39:50;;;;;;;12.57;2.80;;;;;;;;;;4947306;29;20742;-42
2021/05/26 01:42:33;;;;;;;10.93;2.55;;;;;;;;;;4947247;29;20067;-41
2021/05/26 01:45:00;;;;;;;19.95;2.50;;;;;;;;;;4919201;28;20039;-43
2021/05/26 01:47:27;;;;;;;13.07;2.80;;;;;;;;;;4948003;28;20026;-41
2021/05/26 01:49:54;;;;;;;12.57;2.65;;;;;;;;;;4952546;29;20027;-41
2021/05/26 01:52:21;;;;;;;14.73;2.88;;;;;;;;;;4947374;29;20028;-41
2021/05/26 01:54:49;;;;;;;10.95;2.40;;;;;;;;;;4949827;29;20031;-43
2021/05/26 01:57:16;;;;;;;15.07;2.45;;;;;;;;;;4953691;29;20020;-41
2021/05/26 01:59:43;;;;;;;9.23;1.98;;;;;;;;;;4956209;28;20023;-43
2021/05/26 02:02:10;;;;;;;9.98;2.28;;;;;;;;;;4956835;28;20510;-42
2021/05/26 02:04:37;;;;;;;11.15;2.63;;;;;;;;;;4957647;29;20522;-41
2021/05/26 02:07:13;;;;;;;14.95;2.53;;;;;;;;;;4957638;29;20035;-42
2021/05/26 02:09:40;;;;;;;11.10;2.13;;;;;;;;;;4947213;29;20028;-38
2021/05/26 02:12:21;;;;;;;29.83;3.20;;;;;;;;;;4957391;29;20475;-43
2021/05/26 02:14:57;;;;;;;14.02;2.30;;;;;;;;;;4942558;29;20026;-42
2021/05/26 02:17:24;;;;;;;12.82;2.15;;;;;;;;;;4957241;29;20127;-42
2021/05/26 02:19:52;;;;;;;12.95;2.25;;;;;;;;;;4957544;29;20015;-42
2021/05/26 02:22:19;;;;;;;8.98;2.03;;;;;;;;;;4957217;29;20038;-40
2021/05/26 02:24:46;;;;;;;14.25;2.75;;;;;;;;;;4957218;29;20074;-43
2021/05/26 02:27:14;;;;;;;8.05;1.80;;;;;;;;;;4957480;29;20030;-43
2021/05/26 02:29:41;;;;;;;9.15;2.38;;;;;;;;;;4957231;29;20479;-42
2021/05/26 02:32:09;;;;;;;6.47;1.70;;;;;;;;;;4956818;29;20024;-43
2021/05/26 02:34:37;;;;;;;10.73;1.83;;;;;;;;;;4956707;29;20026;-45
2021/05/26 02:37:04;;;;;;;5.50;1.70;;;;;;;;;;4957479;29;20063;-41
2021/05/26 02:39:31;;;;;;;7.40;1.88;;;;;;;;;;4957333;29;20098;-43
2021/05/26 02:41:58;;;;;;;8.88;2.17;;;;;;;;;;4957433;29;20039;-43
2021/05/26 02:44:25;;;;;;;6.68;2.00;;;;;;;;;;4957427;29;20028;-43
2021/05/26 02:46:53;;;;;;;8.25;1.80;;;;;;;;;;4957105;29;20024;-43
2021/05/26 02:49:19;;;;;;;10.32;1.77;;;;;;;;;;4957297;29;20031;-43
2021/05/26 02:51:47;;;;;;;9.43;2.00;;;;;;;;;;4952460;28;20023;-43
2021/05/26 02:54:14;;;;;;;8.10;2.10;;;;;;;;;;4956444;28;20027;-43
2021/05/26 02:56:41;;;;;;;7.72;2.13;;;;;;;;;;4956721;29;20028;-43
2021/05/26 02:59:08;;;;;;;12.45;2.00;;;;;;;;;;4956509;29;20023;-43
2021/05/26 03:01:36;;;;;;;10.07;2.10;;;;;;;;;;4956227;29;20055;-42
2021/05/26 03:04:03;;;;;;;6.82;1.83;;;;;;;;;;4956683;29;20035;-40
2021/05/26 03:06:31;;;;;;;8.13;1.77;;;;;;;;;;4956611;29;20090;-43
2021/05/26 03:08:58;;;;;;;6.70;1.80;;;;;;;;;;4956734;29;20383;-44
2021/05/26 03:11:26;;;;;;;28.45;2.30;;;;;;;;;;4955761;28;20546;-43
2021/05/26 03:13:53;;;;;;;16.23;2.15;;;;;;;;;;4956795;29;20098;-42
2021/05/26 03:16:20;;;;;;;8.18;1.80;;;;;;;;;;4955900;29;20042;-43
2021/05/26 03:18:48;;;;;;;9.43;2.28;;;;;;;;;;4956392;29;20019;-43
2021/05/26 03:21:16;;;;;;;8.15;1.70;;;;;;;;;;4956046;29;20024;-42
2021/05/26 03:23:43;;;;;;;4.43;1.48;;;;;;;;;;4956367;29;20372;-43
2021/05/26 03:26:11;;;;;;;10.25;2.38;;;;;;;;;;4955876;29;20023;-41
2021/05/26 03:28:38;;;;;;;11.70;2.30;;;;;;;;;;4956283;29;20467;-44
2021/05/26 03:31:06;;;;;;;8.20;1.92;;;;;;;;;;4938450;29;20086;-43
2021/05/26 03:33:33;;;;;;;11.10;1.70;;;;;;;;;;4956332;29;20030;-43
2021/05/26 03:36:00;;;;;;;9.57;2.05;;;;;;;;;;4955932;29;20034;-43
2021/05/26 03:38:27;;;;;;;9.35;2.33;;;;;;;;;;4938892;29;20028;-42
2021/05/26 03:40:54;;;;;;;6.03;1.60;;;;;;;;;;4955505;29;20031;-43
2021/05/26 03:43:21;;;;;;;6.50;1.42;;;;;;;;;;4956177;29;20067;-43
2021/05/26 03:45:48;;;;;;;9.38;1.70;;;;;;;;;;4955970;29;20062;-43
2021/05/26 03:48:15;;;;;;;8.63;1.60;;;;;;;;;;4955363;29;20023;-44
2021/05/26 03:50:42;;;;;;;7.68;1.65;;;;;;;;;;4955862;29;20074;-43
2021/05/26 03:53:09;;;;;;;7.70;1.50;;;;;;;;;;4955456;29;20026;-43
2021/05/26 03:55:36;;;;;;;7.70;1.98;;;;;;;;;;4955971;29;20019;-43
2021/05/26 03:58:03;;;;;;;7.63;1.42;;;;;;;;;;4955352;29;20032;-41
2021/05/26 04:00:30;;;;;;;8.93;1.63;;;;;;;;;;4955639;29;20047;-45
2021/05/26 04:02:57;;;;;;;8.55;1.73;;;;;;;;;;4954978;29;20086;-43
2021/05/26 04:05:24;;;;;;;7.43;1.20;;;;;;;;;;4955928;29;20380;-43
2021/05/26 04:07:51;;;;;;;5.90;1.75;;;;;;;;;;4955002;29;20038;-42
2021/05/26 04:10:18;;;;;;;6.68;1.50;;;;;;;;;;4955484;29;20027;-43
2021/05/26 04:12:46;;;;;;;6.28;1.83;;;;;;;;;;4955155;29;20027;-42
2021/05/26 04:15:13;;;;;;;5.43;1.20;;;;;;;;;;4955422;29;20027;-43
2021/05/26 04:17:40;;;;;;;4.07;1.10;;;;;;;;;;4954772;29;20038;-41
2021/05/26 04:20:08;;;;;;;3.53;1.38;;;;;;;;;;4955530;29;20163;-43
2021/05/26 04:22:36;;;;;;;3.75;1.25;;;;;;;;;;4954542;28;20035;-43
2021/05/26 04:25:05;;;;;;;6.00;1.48;;;;;;;;;;4937835;29;20395;-42
2021/05/26 04:27:32;;;;;;;6.07;1.52;;;;;;;;;;4955062;29;20027;-42
2021/05/26 04:30:00;;;;;;;6.78;1.35;;;;;;;;;;4954778;29;20037;-42
2021/05/26 04:32:27;;;;;;;5.28;1.17;;;;;;;;;;4955214;29;20095;-43
2021/05/26 04:34:54;;;;;;;8.48;1.23;;;;;;;;;;4954619;29;20015;-42
2021/05/26 04:37:22;;;;;;;6.43;1.58;;;;;;;;;;4955217;29;20114;-40
2021/05/26 04:39:49;;;;;;;3.55;1.20;;;;;;;;;;4954494;29;20476;-41
2021/05/26 04:42:16;;;;;;;4.60;1.40;;;;;;;;;;4954696;29;20451;-42
2021/05/26 04:44:43;;;;;;;5.20;1.20;;;;;;;;;;4954564;29;20030;-42
2021/05/26 04:47:10;;;;;;;3.05;1.10;;;;;;;;;;4954965;29;20027;-42
2021/05/26 04:49:37;;;;;;;6.40;1.25;;;;;;;;;;4954389;29;20030;-41
2021/05/26 04:52:05;;;;;;;5.32;1.08;;;;;;;;;;4937759;29;20027;-42
2021/05/26 04:54:32;;;;;;;3.83;1.20;;;;;;;;;;4954689;29;20078;-42
2021/05/26 04:56:59;;;;;;;3.17;0.98;;;;;;;;;;4954435;29;20031;-42
2021/05/26 04:59:26;;;;;;;5.55;1.30;;;;;;;;;;4954750;29;20514;-42
2021/05/26 05:01:53;;;;;;;2.70;1.10;;;;;;;;;;4953711;29;20410;-41
2021/05/26 05:04:20;;;;;;;2.95;0.90;;;;;;;;;;4954678;29;20487;-42
2021/05/26 05:06:47;;;;;;;3.13;0.90;;;;;;;;;;4954256;29;20034;-43
2021/05/26 05:09:14;;;;;;;3.60;1.42;;;;;;;;;;4954496;29;20039;-41
2021/05/26 05:11:41;;;;;;;4.28;1.10;;;;;;;;;;4953879;29;20106;-41
2021/05/26 05:14:08;;;;;;;7.90;1.20;;;;;;;;;;4954680;29;20379;-41
2021/05/26 05:16:35;;;;;;;4.97;1.10;;;;;;;;;;4954136;29;20030;-44
2021/05/26 05:19:03;;;;;;;6.43;1.70;;;;;;;;;;4954243;29;20382;-42
2021/05/26 05:21:30;;;;;;;1.92;0.90;;;;;;;;;;4953994;29;20038;-42
2021/05/26 05:23:57;;;;;;;4.97;1.00;;;;;;;;;;4937155;29;20360;-43
2021/05/26 05:26:24;;;;;;;3.30;1.00;;;;;;;;;;4953771;29;20506;-42
2021/05/26 05:28:51;;;;;;;4.90;1.20;;;;;;;;;;4954194;29;20031;-44
2021/05/26 05:31:18;;;;;;;3.85;0.82;;;;;;;;;;4953767;29;20023;-39
2021/05/26 05:33:45;;;;;;;2.30;0.80;;;;;;;;;;4954039;28;20031;-42
2021/05/26 05:36:12;;;;;;;4.00;0.95;;;;;;;;;;4954408;29;20025;-44
2021/05/26 05:38:39;;;;;;;3.35;1.10;;;;;;;;;;4953714;29;20530;-42
2021/05/26 05:41:07;;;;;;;4.97;1.42;;;;;;;;;;4953805;29;20093;-42
2021/05/26 05:43:36;;;;;;;4.32;1.10;;;;;;;;;;4953757;29;20452;-43
2021/05/26 05:46:04;;;;;;;2.40;1.10;;;;;;;;;;4954320;29;20038;-42
2021/05/26 05:48:31;;;;;;;4.53;1.27;;;;;;;;;;4953661;29;20110;-41
2021/05/26 05:50:58;;;;;;;2.85;0.90;;;;;;;;;;4953663;29;20042;-42
2021/05/26 05:53:25;;;;;;;3.70;0.80;;;;;;;;;;4953762;29;20073;-41
2021/05/26 05:55:52;;;;;;;2.10;0.70;;;;;;;;;;4954000;29;20558;-42
2021/05/26 05:58:28;;;;;;;3.20;1.10;;;;;;;;;;4953605;29;20023;-42
2021/05/26 06:00:55;;;;;;;4.20;1.00;;;;;;;;;;4953614;29;20027;-41
2021/05/26 06:03:22;;;;;;;2.47;0.93;;;;;;;;;;4953276;29;20106;-41
2021/05/26 06:05:49;;;;;;;2.97;1.02;;;;;;;;;;4953917;29;20024;-43
2021/05/26 06:08:16;;;;;;;2.83;0.80;;;;;;;;;;4953961;29;20035;-41
2021/05/26 06:10:43;;;;;;;2.92;0.82;;;;;;;;;;4953097;29;20027;-42
2021/05/26 06:13:10;;;;;;;4.10;0.80;;;;;;;;;;4953879;29;20031;-41
2021/05/26 06:15:37;;;;;;;3.03;0.90;;;;;;;;;;4953645;29;20420;-43
2021/05/26 06:18:05;;;;;;;2.67;0.90;;;;;;;;;;4953798;29;20415;-43
2021/05/26 06:20:31;;;;;;;1.20;0.70;;;;;;;;;;4953273;29;20027;-42
2021/05/26 06:22:59;;;;;;;1.63;0.65;;;;;;;;;;4953719;29;20046;-42
2021/05/26 06:25:26;;;;;;;2.30;0.63;;;;;;;;;;4953229;29;20103;-44
2021/05/26 06:27:53;;;;;;;2.08;0.85;;;;;;;;;;4953662;29;20023;-43
2021/05/26 06:30:21;;;;;;;2.22;0.60;;;;;;;;;;4953219;29;20382;-41
2021/05/26 06:32:48;;;;;;;1.30;0.70;;;;;;;;;;4953638;29;20034;-43
2021/05/26 06:35:15;;;;;;;3.70;0.70;;;;;;;;;;4953267;29;20111;-42
2021/05/26 06:37:42;;;;;;;1.20;0.50;;;;;;;;;;4953791;29;20495;-43
2021/05/26 06:40:10;;;;;;;2.33;0.70;;;;;;;;;;4935978;29;20420;-40
2021/05/26 06:42:37;;;;;;;2.33;0.60;;;;;;;;;;4953520;29;20042;-40
2021/05/26 06:45:04;;;;;;;1.73;0.60;;;;;;;;;;4954580;28;20480;-41
2021/05/26 06:47:31;;;;;;;2.42;0.63;;;;;;;;;;4956794;29;20051;-43
2021/05/26 06:49:59;;;;;;;1.80;0.70;;;;;;;;;;4956658;28;20019;-43
2021/05/26 06:52:26;;;;;;;2.08;0.77;;;;;;;;;;4939258;29;20432;-42
2021/05/26 06:54:53;;;;;;;2.08;0.68;;;;;;;;;;4939963;29;20048;-42
2021/05/26 06:57:20;;;;;;;3.30;0.80;;;;;;;;;;4956460;29;20038;-42
2021/05/26 06:59:47;;;;;;;1.15;0.60;;;;;;;;;;4956976;29;20034;-41
2021/05/26 07:02:14;;;;;;;2.50;0.70;;;;;;;;;;4955942;29;20054;-39
2021/05/26 07:04:41;;;;;;;1.40;0.50;;;;;;;;;;4956741;29;20027;-41
2021/05/26 07:07:09;;;;;;;1.75;0.63;;;;;;;;;;4956233;29;20027;-39
2021/05/26 07:09:36;;;;;;;2.78;0.80;;;;;;;;;;4956932;29;20030;-42
2021/05/26 07:12:03;;;;;;;2.30;0.70;;;;;;;;;;4939084;29;20031;-39
2021/05/26 07:14:30;;;;;;;3.17;0.70;;;;;;;;;;4956566;29;20150;-40
2021/05/26 07:16:57;;;;;;;2.55;0.50;;;;;;;;;;4956785;29;20027;-43
2021/05/26 07:19:24;;;;;;;1.77;0.50;;;;;;;;;;4956103;29;20026;-39
2021/05/26 07:21:52;;;;;;;1.00;0.50;;;;;;;;;;4955954;29;20046;-41
2021/05/26 07:24:19;;;;;;;1.60;0.50;;;;;;;;;;4956172;29;20019;-40
2021/05/26 07:26:46;;;;;;;3.60;0.70;;;;;;;;;;4956403;29;20063;-42
2021/05/26 07:29:13;;;;;;;2.28;0.63;;;;;;;;;;4956012;29;20061;-42
2021/05/26 07:31:41;;;;;;;3.05;0.70;;;;;;;;;;4956331;29;20034;-42
2021/05/26 07:34:08;;;;;;;0.63;0.32;;;;;;;;;;4955759;29;20031;-42
2021/05/26 07:36:35;;;;;;;2.05;0.93;;;;;;;;;;4956210;29;20026;-41
2021/05/26 07:39:03;;;;;;;1.83;0.60;;;;;;;;;;4955967;29;20391;-39
2021/05/26 07:41:30;;;;;;;2.25;0.60;;;;;;;;;;4955950;29;20070;-42
2021/05/26 07:43:57;;;;;;;1.75;0.63;;;;;;;;;;4938600;29;20399;-39
2021/05/26 07:46:24;;;;;;;1.27;0.57;;;;;;;;;;4956432;29;20019;-41
2021/05/26 07:48:52;;;;;;;2.15;0.60;;;;;;;;;;4956020;29;20073;-42
2021/05/26 07:51:27;;;;;;;1.50;0.57;;;;;;;;;;4955111;29;20070;-43
2021/05/26 07:53:54;;;;;;;1.58;0.40;;;;;;;;;;4955948;29;20027;-42
2021/05/26 07:56:22;;;;;;;1.30;0.50;;;;;;;;;;4954494;28;20098;-40
2021/05/26 07:58:49;;;;;;;1.40;0.57;;;;;;;;;;4955889;29;20434;-41
2021/05/26 08:01:16;;;;;;;1.80;0.70;;;;;;;;;;4954992;29;20042;-42
2021/05/26 08:03:43;;;;;;;1.33;0.40;;;;;;;;;;4955988;29;20090;-37
2021/05/26 08:06:12;;;;;;;1.65;0.60;;;;;;;;;;4955167;29;20499;-40
2021/05/26 08:08:39;;;;;;;1.42;0.50;;;;;;;;;;4955707;29;20379;-40
2021/05/26 08:11:07;;;;;;;0.93;0.45;;;;;;;;;;4955394;29;20045;-39
2021/05/26 08:13:34;;;;;;;0.90;0.40;;;;;;;;;;4955448;29;20475;-42
2021/05/26 08:16:01;;;;;;;2.88;0.40;;;;;;;;;;4954966;29;20110;-42
2021/05/26 08:18:29;;;;;;;0.60;0.43;;;;;;;;;;4955627;29;20027;-41
2021/05/26 08:20:56;;;;;;;2.25;0.85;;;;;;;;;;4954751;29;20035;-39
2021/05/26 08:23:25;;;;;;;0.80;0.40;;;;;;;;;;4955288;29;20032;-42
2021/05/26 08:25:52;;;;;;;1.27;0.57;;;;;;;;;;4955006;29;20026;-42
2021/05/26 08:28:19;;;;;;;0.63;0.22;;;;;;;;;;4955510;29;20047;-43
2021/05/26 08:30:46;;;;;;;1.10;0.40;;;;;;;;;;4955185;29;20062;-42
2021/05/26 08:33:14;;;;;;;0.65;0.30;;;;;;;;;;4954478;29;20365;-42
2021/05/26 08:35:41;;;;;;;1.63;0.65;;;;;;;;;;4938022;29;20034;-42
2021/05/26 08:38:08;;;;;;;0.90;0.50;;;;;;;;;;4954781;29;20023;-43
2021/05/26 08:40:35;;;;;;;0.85;0.40;;;;;;;;;;4955118;29;20019;-42
2021/05/26 08:43:03;;;;;;;3.08;0.85;;;;;;;;;;4954457;29;20035;-41
2021/05/26 08:45:30;;;;;;;2.85;0.45;;;;;;;;;;4954930;29;20031;-41
2021/05/26 08:47:59;;;;;;;1.20;0.40;;;;;;;;;;4954410;29;20455;-41
2021/05/26 08:50:27;;;;;;;2.35;0.40;;;;;;;;;;4955094;29;20650;-43
2021/05/26 08:52:54;;;;;;;0.73;0.40;;;;;;;;;;4954239;29;20086;-42
2021/05/26 08:55:21;;;;;;;0.85;0.40;;;;;;;;;;4954875;29;20023;-42
2021/05/26 08:57:48;;;;;;;1.20;0.60;;;;;;;;;;4954505;29;20023;-43
2021/05/26 09:00:15;;;;;;;0.50;0.32;;;;;;;;;;4954685;29;20031;-40
2021/05/26 09:02:43;;;;;;;1.13;0.45;;;;;;;;;;4953608;29;20716;-43
2021/05/26 09:05:21;;;;;;;1.23;0.40;;;;;;;;;;4954865;29;20202;-41
2021/05/26 09:07:48;;;;;;;1.40;0.50;;;;;;;;;;4953963;28;20026;-42
2021/05/26 09:10:15;;;;;;;1.38;0.32;;;;;;;;;;4954593;29;20020;-42
2021/05/26 09:12:46;;;;;;;0.57;0.32;;;;;;;;;;4954065;29;20512;-40
2021/05/26 09:15:15;;;;;;;1.27;0.60;;;;;;;;;;4954523;29;20033;-42
2021/05/26 09:17:50;;;;;;;1.67;0.40;;;;;;;;;;4954524;29;20031;-43
2021/05/26 09:20:23;;;;;;;0.40;0.20;;;;;;;;;;4954079;29;20039;-42
2021/05/26 09:23:08;;;;;;;0.50;0.25;;;;;;;;;;4953991;29;20124;-42
2021/05/26 09:25:37;;;;;;;1.23;0.43;;;;;;;;;;4954185;29;20031;-42
2021/05/26 09:28:18;;;;;;;0.60;0.32;;;;;;;;;;4954252;29;20102;-42
2021/05/26 09:30:46;;;;;;;2.67;0.30;;;;;;;;;;4953965;29;20082;-43
2021/05/26 09:33:32;;;;;;;1.40;0.40;;;;;;;;;;4954181;29;20420;-41
2021/05/26 09:36:14;;;;;;;0.93;0.30;;;;;;;;;;4953964;29;20098;-42
2021/05/26 09:38:42;;;;;;;0.60;0.38;;;;;;;;;;4953907;29;20106;-42
2021/05/26 09:41:13;;;;;;;0.50;0.28;;;;;;;;;;4953738;29;20028;-40
2021/05/26 09:43:47;;;;;;;0.85;0.50;;;;;;;;;;4954232;29;20041;-42
2021/05/26 09:46:27;;;;;;;1.30;0.50;;;;;;;;;;4953750;29;20022;-40
2021/05/26 09:49:05;;;;;;;0.75;0.45;;;;;;;;;;4953668;29;20034;-42
2021/05/26 09:51:36;;;;;;;0.43;0.30;;;;;;;;;;4953519;29;20023;-40
2021/05/26 09:54:09;;;;;;;0.95;0.38;;;;;;;;;;4953903;29;20031;-42
2021/05/26 09:56:36;;;;;;;0.90;0.50;;;;;;;;;;4949126;28;20031;-39
2021/05/26 09:59:04;;;;;;;0.32;0.30;;;;;;;;;;4950002;29;20468;-43
2021/05/26 10:01:31;;;;;;;1.25;0.50;;;;;;;;;;4943829;28;20032;-41
2021/05/26 10:03:59;;;;;;;5.88;0.45;;;;;;;;;;4934892;29;20043;-42
2021/05/26 10:06:28;;;;;;;0.90;0.47;;;;;;;;;;4933437;29;20038;-43
2021/05/26 10:08:56;;;;;;;0.50;0.38;;;;;;;;;;4953398;29;20027;-43
2021/05/26 10:11:25;;;;;;;0.90;0.40;;;;;;;;;;4952859;29;20046;-42
2021/05/26 10:13:53;;;;;;;1.40;0.30;;;;;;;;;;4951149;29;20387;-41
2021/05/26 10:16:21;;;;;;;1.00;0.30;;;;;;;;;;4952872;29;20027;-42
2021/05/26 10:18:48;;;;;;;0.75;0.20;;;;;;;;;;4953760;28;20361;-40
2021/05/26 10:21:16;;;;;;;0.55;0.28;;;;;;;;;;4939043;29;20031;-39
2021/05/26 10:23:44;;;;;;;0.73;0.32;;;;;;;;;;4940055;29;20063;-38
2021/05/26 10:26:11;;;;;;;0.98;0.30;;;;;;;;;;4957460;29;20038;-39
2021/05/26 10:28:38;;;;;;;0.50;0.30;;;;;;;;;;4956760;29;20062;-35
2021/05/26 10:31:06;;;;;;;1.30;0.52;;;;;;;;;;4957139;29;20542;-39
2021/05/26 10:33:59;;;;;;;0.70;0.35;;;;;;;;;;4956637;29;20027;-37
2021/05/26 10:36:26;;;;;;;1.58;0.38;;;;;;;;;;4954143;29;20440;-36
2021/05/26 10:39:00;;;;;;;0.85;0.20;;;;;;;;;;4956696;29;20023;-37
2021/05/26 10:41:47;;;;;;;1.60;0.40;;;;;;;;;;4957087;29;20049;-38
2021/05/26 10:44:14;;;;;;;0.28;0.20;;;;;;;;;;4956629;29;20121;-40
2021/05/26 10:46:43;;;;;;;1.85;0.50;;;;;;;;;;4957065;29;20030;-37
2021/05/26 10:49:11;;;;;;;1.10;0.30;;;;;;;;;;4955629;28;20031;-40
2021/05/26 10:51:54;;;;;;;0.77;0.30;;;;;;;;;;4957035;29;20561;-40
2021/05/26 10:54:40;;;;;;;0.65;0.30;;;;;;;;;;4949096;29;20023;-40
2021/05/26 10:57:08;;;;;;;1.65;0.38;;;;;;;;;;4956977;29;20031;-40
2021/05/26 10:59:35;;;;;;;0.52;0.30;;;;;;;;;;4955751;29;20098;-43
2021/05/26 11:02:09;;;;;;;0.57;0.30;;;;;;;;;;4956245;29;20057;-42
2021/05/26 11:04:37;;;;;;;0.35;0.20;;;;;;;;;;4955157;29;20027;-42
2021/05/26 11:07:18;;;;;;;1.33;0.50;;;;;;;;;;4953627;29;20023;-41
2021/05/26 11:10:08;;;;;;;0.70;0.38;;;;;;;;;;4955420;29;20518;-36
2021/05/26 11:13:07;;;;;;;2.88;0.40;;;;;;;;;;4951823;29;20039;-36
2021/05/26 11:15:44;;;;;;;0.65;0.30;;;;;;;;;;4934027;29;20040;-42
2021/05/26 11:18:15;;;;;;;0.75;0.25;;;;;;;;;;4956253;29;20078;-37
2021/05/26 11:20:42;;;;;;;0.50;0.30;;;;;;;;;;4956092;29;20027;-36
2021/05/26 11:23:13;;;;;;;0.30;0.30;;;;;;;;;;4956493;29;20035;-36
2021/05/26 11:26:00;;;;;;;0.57;0.30;;;;;;;;;;4955617;29;20035;-37
2021/05/26 11:28:28;;;;;;;1.90;0.85;;;;;;;;;;4956252;29;20020;-39
2021/05/26 11:31:05;;;;;;;0.60;0.20;;;;;;;;;;4955741;28;20476;-37
2021/05/26 11:33:32;;;;;;;1.55;0.30;;;;;;;;;;4956474;29;20034;-38
2021/05/26 11:36:07;;;;;;;0.43;0.20;;;;;;;;;;4955473;29;20480;-37
2021/05/26 11:38:34;;;;;;;1.77;0.38;;;;;;;;;;4955382;29;20075;-39
2021/05/26 11:41:02;;;;;;;0.50;0.30;;;;;;;;;;4955418;29;20158;-40
2021/05/26 11:43:33;;;;;;;0.57;0.30;;;;;;;;;;4955605;29;20054;-40
2021/05/26 11:46:04;;;;;;;0.50;0.30;;;;;;;;;;4955194;29;20305;-37
2021/05/26 11:48:31;;;;;;;1.35;0.30;;;;;;;;;;4955042;28;20038;-38
2021/05/26 11:50:58;;;;;;;0.50;0.30;;;;;;;;;;4955589;29;20650;-38
2021/05/26 11:53:25;;;;;;;1.27;0.50;;;;;;;;;;4955851;29;20031;-38
2021/05/26 11:55:58;;;;;;;1.48;0.40;;;;;;;;;;4955218;29;20031;-40
2021/05/26 11:58:30;;;;;;;0.57;0.30;;;;;;;;;;4955649;29;20392;-36
2021/05/26 12:01:04;;;;;;;0.90;0.40;;;;;;;;;;4955397;29;20027;-36
2021/05/26 12:03:32;;;;;;;0.70;0.38;;;;;;;;;;4955363;29;20418;-36
2021/05/26 12:05:59;;;;;;;0.45;0.30;;;;;;;;;;4955161;29;20027;-43
2021/05/26 12:08:27;;;;;;;0.77;0.40;;;;;;;;;;4954898;29;20099;-38
2021/05/26 12:10:55;;;;;;;0.60;0.20;;;;;;;;;;4938020;29;20030;-42
2021/05/26 12:13:28;;;;;;;1.10;0.30;;;;;;;;;;4954990;29;20547;-39
2021/05/26 12:16:01;;;;;;;3.50;0.50;;;;;;;;;;4954967;29;20035;-42
2021/05/26 12:18:28;;;;;;;0.63;0.30;;;;;;;;;;4954728;29;20102;-39
2021/05/26 12:20:56;;;;;;;1.05;0.45;;;;;;;;;;4947623;29;20034;-41
2021/05/26 12:23:39;;;;;;;1.02;0.30;;;;;;;;;;4954516;29;20491;-40
2021/05/26 12:26:25;;;;;;;0.75;0.50;;;;;;;;;;4954229;29;20034;-40
2021/05/26 12:28:56;;;;;;;0.47;0.30;;;;;;;;;;4954646;29;20102;-41
2021/05/26 12:31:23;;;;;;;3.53;0.65;;;;;;;;;;4955187;29;20023;-40
2021/05/26 12:33:55;;;;;;;0.68;0.30;;;;;;;;;;4954314;29;20035;-42
2021/05/26 12:36:24;;;;;;;0.95;0.30;;;;;;;;;;4954388;29;20035;-40
2021/05/26 12:38:58;;;;;;;0.70;0.30;;;;;;;;;;4937049;29;20033;-40
2021/05/26 12:41:26;;;;;;;1.73;0.30;;;;;;;;;;4954458;29;20023;-43
2021/05/26 12:43:54;;;;;;;0.60;0.30;;;;;;;;;;4953636;28;20035;-41
2021/05/26 12:46:41;;;;;;;0.75;0.40;;;;;;;;;;4954411;29;20030;-40
2021/05/26 12:49:33;;;;;;;3.15;0.40;;;;;;;;;;4936223;29;20051;-42
2021/05/26 12:52:10;;;;;;;1.42;0.32;;;;;;;;;;4935967;29;20053;-42
2021/05/26 12:54:41;;;;;;;0.40;0.20;;;;;;;;;;4935272;29;20038;-43
2021/05/26 12:57:25;;;;;;;1.58;0.30;;;;;;;;;;4935478;29;20023;-42
2021/05/26 12:59:56;;;;;;;0.60;0.20;;;;;;;;;;4935128;29;20028;-37
2021/05/26 13:02:42;;;;;;;1.48;0.30;;;;;;;;;;4946026;29;20491;-41
2021/05/26 13:05:10;;;;;;;3.95;0.70;;;;;;;;;;4944068;28;20885;-43
2021/05/26 13:07:44;;;;;;;1.15;0.40;;;;;;;;;;4953106;28;20038;-39
2021/05/26 13:10:23;;;;;;;2.33;0.32;;;;;;;;;;4953262;29;20497;-39
2021/05/26 13:12:51;;;;;;;2.17;0.40;;;;;;;;;;4951590;29;20035;-45
2021/05/26 13:15:33;;;;;;;3.00;0.40;;;;;;;;;;4953024;28;20674;-36
2021/05/26 13:18:01;;;;;;;1.20;0.50;;;;;;;;;;4949830;29;20035;-37
2021/05/26 13:20:28;;;;;;;1.55;0.45;;;;;;;;;;4951282;29;20102;-41
2021/05/26 13:22:55;;;;;;;3.40;0.60;;;;;;;;;;4951496;28;20031;-42
2021/05/26 13:25:22;;;;;;;4.75;1.70;;;;;;;;;;4953877;29;20019;-42
2021/05/26 13:27:53;;;;;;;1.52;1.30;;;;;;;;;;4952071;29;20027;-44
2021/05/26 13:30:21;;;;;;;5.60;1.70;;;;;;;;;;4952613;29;20034;-39
2021/05/26 13:32:49;;;;;;;3.70;1.23;;;;;;;;;;4953397;29;20497;-45
2021/05/26 13:35:16;;;;;;;3.50;1.00;;;;;;;;;;4953925;29;20035;-44
2021/05/26 13:37:43;;;;;;;1.70;0.70;;;;;;;;;;4952759;29;20480;-41
2021/05/26 13:40:11;;;;;;;3.10;1.20;;;;;;;;;;4949086;28;20050;-39
2021/05/26 13:42:40;;;;;;;2.15;0.40;;;;;;;;;;4952057;28;20035;-39
2021/05/26 13:45:09;;;;;;;3.03;0.50;;;;;;;;;;4953379;29;20049;-39
2021/05/26 13:47:36;;;;;;;0.85;0.45;;;;;;;;;;4952948;29;20023;-40
2021/05/26 13:50:04;;;;;;;9.48;0.55;;;;;;;;;;4952724;28;20027;-42
2021/05/26 13:52:32;;;;;;;2.00;0.70;;;;;;;;;;4951046;29;20036;-42
2021/05/26 13:55:00;;;;;;;3.88;0.70;;;;;;;;;;4955900;28;20435;-41
2021/05/26 13:57:27;;;;;;;7.10;1.00;;;;;;;;;;4952509;28;20054;-43
2021/05/26 13:59:54;;;;;;;6.75;0.70;;;;;;;;;;4956423;29;20143;-43
2021/05/26 14:02:21;;;;;;;5.60;1.13;;;;;;;;;;4957360;29;20586;-44
2021/05/26 14:04:49;;;;;;;7.05;1.00;;;;;;;;;;4954016;29;20098;-39
2021/05/26 14:07:18;;;;;;;5.07;1.05;;;;;;;;;;4938760;29;20566;-39
2021/05/26 14:09:46;;;;;;;2.47;0.80;;;;;;;;;;4956916;29;20095;-40
2021/05/26 14:12:13;;;;;;;1.65;0.70;;;;;;;;;;4957405;29;20031;-39
2021/05/26 14:14:41;;;;;;;11.93;1.20;;;;;;;;;;4956262;29;20023;-40
2021/05/26 14:17:08;;;;;;;6.13;0.65;;;;;;;;;;4955168;29;20423;-39
2021/05/26 14:19:36;;;;;;;2.50;0.70;;;;;;;;;;4956405;29;20484;-40
2021/05/26 14:22:06;;;;;;;21.98;1.27;;;;;;;;;;4953755;29;20054;-39
2021/05/26 14:24:33;;;;;;;5.13;0.77;;;;;;;;;;4956866;29;20086;-40
2021/05/26 14:27:00;;;;;;;10.75;0.90;;;;;;;;;;4956543;29;20488;-41
2021/05/26 14:29:27;;;;;;;7.07;0.70;;;;;;;;;;4954231;29;20057;-35
2021/05/26 14:31:54;;;;;;;5.15;0.70;;;;;;;;;;4957034;29;20380;-39
2021/05/26 14:34:23;;;;;;;4.97;0.80;;;;;;;;;;4956352;29;20012;-38
2021/05/26 14:36:51;;;;;;;11.05;1.02;;;;;;;;;;4956283;29;20118;-38
2021/05/26 14:39:19;;;;;;;10.07;1.25;;;;;;;;;;4955159;29;20023;-41
2021/05/26 14:41:47;;;;;;;7.72;1.13;;;;;;;;;;4954663;29;20091;-40
2021/05/26 14:44:15;;;;;;;8.90;1.00;;;;;;;;;;4956716;29;20427;-38
2021/05/26 14:46:43;;;;;;;6.65;0.95;;;;;;;;;;4956448;29;20074;-42
2021/05/26 14:49:10;;;;;;;5.63;0.90;;;;;;;;;;4956620;29;20015;-43
2021/05/26 14:51:37;;;;;;;2.95;0.70;;;;;;;;;;4954221;28;20090;-42